sensor_id;sensor_type;location;lat;lon;timestamp;P1;durP1;ratioP1;P2;durP2;ratioP2
72720;SDS011;60835;50.974;10.322;2022-10-17T00:00:28;7.75;;;1.90;;
72720;SDS011;60835;50.974;10.322;2022-10-17T00:02:55;8.65;;;2.05;;
72720;SDS011;60835;50.974;10.322;2022-10-17T00:05:22;4.75;;;2.42;;
72720;SDS011;60835;50.974;10.322;2022-10-17T00:07:49;4.10;;;2.25;;
72720;SDS011;60835;50.974;10.322;2022-10-17T00:10:15;4.97;;;2.50;;
72720;SDS011;60835;50.974;10.322;2022-10-17T00:12:42;8.18;;;2.40;;
72720;SDS011;60835;50.974;10.322;2022-10-17T00:15:09;5.93;;;1.98;;
72720;SDS011;60835;50.974;10.322;2022-10-17T00:17:39;7.78;;;1.90;;
72720;SDS011;60835;50.974;10.322;2022-10-17T00:20:07;6.28;;;2.40;;
72720;SDS011;60835;50.974;10.322;2022-10-17T00:22:33;6.32;;;2.05;;
72720;SDS011;60835;50.974;10.322;2022-10-17T00:25:05;3.83;;;1.80;;
72720;SDS011;60835;50.974;10.322;2022-10-17T00:27:35;8.38;;;2.35;;
72720;SDS011;60835;50.974;10.322;2022-10-17T00:30:03;6.38;;;2.40;;
72720;SDS011;60835;50.974;10.322;2022-10-17T00:32:32;5.40;;;2.22;;
72720;SDS011;60835;50.974;10.322;2022-10-17T00:34:58;6.25;;;2.40;;
72720;SDS011;60835;50.974;10.322;2022-10-17T00:37:25;8.80;;;3.90;;
72720;SDS011;60835;50.974;10.322;2022-10-17T00:39:52;8.43;;;4.28;;
72720;SDS011;60835;50.974;10.322;2022-10-17T00:42:19;7.93;;;3.65;;
72720;SDS011;60835;50.974;10.322;2022-10-17T00:47:13;4.40;;;3.65;;
72720;SDS011;60835;50.974;10.322;2022-10-17T00:49:44;5.30;;;3.67;;
72720;SDS011;60835;50.974;10.322;2022-10-17T00:52:12;6.20;;;3.65;;
72720;SDS011;60835;50.974;10.322;2022-10-17T00:54:43;8.50;;;3.78;;
72720;SDS011;60835;50.974;10.322;2022-10-17T00:57:14;9.52;;;3.92;;
72720;SDS011;60835;50.974;10.322;2022-10-17T00:59:42;7.38;;;3.50;;
72720;SDS011;60835;50.974;10.322;2022-10-17T01:02:13;10.65;;;4.18;;
72720;SDS011;60835;50.974;10.322;2022-10-17T01:04:43;8.90;;;3.70;;
72720;SDS011;60835;50.974;10.322;2022-10-17T01:07:11;9.43;;;3.80;;
72720;SDS011;60835;50.974;10.322;2022-10-17T01:09:38;5.03;;;3.05;;
72720;SDS011;60835;50.974;10.322;2022-10-17T01:12:10;6.53;;;3.63;;
72720;SDS011;60835;50.974;10.322;2022-10-17T01:23:08;7.55;;;3.72;;
72720;SDS011;60835;50.974;10.322;2022-10-17T01:26:15;6.07;;;3.72;;
72720;SDS011;60835;50.974;10.322;2022-10-17T01:32:33;7.57;;;3.72;;
72720;SDS011;60835;50.974;10.322;2022-10-17T01:37:47;8.75;;;3.30;;
72720;SDS011;60835;50.974;10.322;2022-10-17T01:40:45;10.48;;;4.03;;
72720;SDS011;60835;50.974;10.322;2022-10-17T01:43:17;6.50;;;3.15;;
72720;SDS011;60835;50.974;10.322;2022-10-17T01:45:52;7.82;;;2.95;;
72720;SDS011;60835;50.974;10.322;2022-10-17T01:48:27;5.65;;;2.97;;
72720;SDS011;60835;50.974;10.322;2022-10-17T01:51:05;9.55;;;3.00;;
72720;SDS011;60835;50.974;10.322;2022-10-17T01:53:37;5.25;;;3.03;;
72720;SDS011;60835;50.974;10.322;2022-10-17T01:56:10;11.35;;;3.60;;
72720;SDS011;60835;50.974;10.322;2022-10-17T01:58:40;6.93;;;3.33;;
72720;SDS011;60835;50.974;10.322;2022-10-17T02:01:12;3.47;;;2.60;;
72720;SDS011;60835;50.974;10.322;2022-10-17T02:03:39;9.57;;;3.35;;
72720;SDS011;60835;50.974;10.322;2022-10-17T02:06:08;5.68;;;2.97;;
72720;SDS011;60835;50.974;10.322;2022-10-17T02:08:48;3.80;;;2.83;;
72720;SDS011;60835;50.974;10.322;2022-10-17T02:11:19;3.75;;;2.88;;
72720;SDS011;60835;50.974;10.322;2022-10-17T02:16:34;3.85;;;2.83;;
72720;SDS011;60835;50.974;10.322;2022-10-17T02:30:06;7.85;;;2.88;;
72720;SDS011;60835;50.974;10.322;2022-10-17T02:33:38;7.10;;;3.03;;
72720;SDS011;60835;50.974;10.322;2022-10-17T02:35:37;5.72;;;3.47;;
72720;SDS011;60835;50.974;10.322;2022-10-17T02:38:08;4.43;;;2.80;;
72720;SDS011;60835;50.974;10.322;2022-10-17T02:40:37;4.95;;;3.65;;
72720;SDS011;60835;50.974;10.322;2022-10-17T02:43:05;4.13;;;2.65;;
72720;SDS011;60835;50.974;10.322;2022-10-17T02:45:32;9.43;;;3.28;;
72720;SDS011;60835;50.974;10.322;2022-10-17T02:48:03;8.35;;;3.20;;
72720;SDS011;60835;50.974;10.322;2022-10-17T02:53:38;7.70;;;2.50;;
72720;SDS011;60835;50.974;10.322;2022-10-17T02:56:15;7.13;;;3.10;;
72720;SDS011;60835;50.974;10.322;2022-10-17T02:58:50;12.57;;;4.10;;
72720;SDS011;60835;50.974;10.322;2022-10-17T03:01:21;5.05;;;3.17;;
72720;SDS011;60835;50.974;10.322;2022-10-17T03:03:48;5.35;;;3.53;;
72720;SDS011;60835;50.974;10.322;2022-10-17T03:06:14;7.22;;;3.83;;
72720;SDS011;60835;50.974;10.322;2022-10-17T03:08:41;5.53;;;3.40;;
72720;SDS011;60835;50.974;10.322;2022-10-17T03:11:07;7.38;;;3.72;;
72720;SDS011;60835;50.974;10.322;2022-10-17T03:13:36;5.88;;;3.08;;
72720;SDS011;60835;50.974;10.322;2022-10-17T03:16:05;8.80;;;3.88;;
72720;SDS011;60835;50.974;10.322;2022-10-17T03:18:31;13.27;;;3.45;;
72720;SDS011;60835;50.974;10.322;2022-10-17T03:20:58;8.52;;;3.58;;
72720;SDS011;60835;50.974;10.322;2022-10-17T03:23:24;5.75;;;3.15;;
72720;SDS011;60835;50.974;10.322;2022-10-17T03:25:51;4.13;;;3.33;;
72720;SDS011;60835;50.974;10.322;2022-10-17T03:28:17;12.15;;;3.83;;
72720;SDS011;60835;50.974;10.322;2022-10-17T03:30:43;10.73;;;3.53;;
72720;SDS011;60835;50.974;10.322;2022-10-17T03:33:10;5.43;;;3.60;;
72720;SDS011;60835;50.974;10.322;2022-10-17T03:35:37;10.65;;;3.50;;
72720;SDS011;60835;50.974;10.322;2022-10-17T03:38:05;8.00;;;3.45;;
72720;SDS011;60835;50.974;10.322;2022-10-17T03:40:31;7.10;;;3.40;;
72720;SDS011;60835;50.974;10.322;2022-10-17T03:42:58;5.97;;;4.00;;
72720;SDS011;60835;50.974;10.322;2022-10-17T03:45:24;6.50;;;3.63;;
72720;SDS011;60835;50.974;10.322;2022-10-17T03:47:51;5.38;;;3.55;;
72720;SDS011;60835;50.974;10.322;2022-10-17T03:50:17;5.45;;;3.72;;
72720;SDS011;60835;50.974;10.322;2022-10-17T03:52:47;9.48;;;3.28;;
72720;SDS011;60835;50.974;10.322;2022-10-17T03:55:14;6.03;;;3.30;;
72720;SDS011;60835;50.974;10.322;2022-10-17T03:57:41;9.38;;;3.15;;
72720;SDS011;60835;50.974;10.322;2022-10-17T04:00:11;5.43;;;3.15;;
72720;SDS011;60835;50.974;10.322;2022-10-17T04:02:38;4.97;;;3.42;;
72720;SDS011;60835;50.974;10.322;2022-10-17T04:05:04;7.15;;;3.63;;
72720;SDS011;60835;50.974;10.322;2022-10-17T04:07:31;7.93;;;3.35;;
72720;SDS011;60835;50.974;10.322;2022-10-17T04:09:58;10.43;;;3.17;;
72720;SDS011;60835;50.974;10.322;2022-10-17T04:12:24;5.30;;;3.25;;
72720;SDS011;60835;50.974;10.322;2022-10-17T04:14:50;4.28;;;2.90;;
72720;SDS011;60835;50.974;10.322;2022-10-17T04:17:17;5.70;;;3.17;;
72720;SDS011;60835;50.974;10.322;2022-10-17T04:19:43;6.47;;;2.75;;
72720;SDS011;60835;50.974;10.322;2022-10-17T04:22:10;8.73;;;3.13;;
72720;SDS011;60835;50.974;10.322;2022-10-17T04:24:36;7.75;;;3.22;;
72720;SDS011;60835;50.974;10.322;2022-10-17T04:27:03;9.85;;;3.28;;
72720;SDS011;60835;50.974;10.322;2022-10-17T04:29:29;8.93;;;3.67;;
72720;SDS011;60835;50.974;10.322;2022-10-17T04:31:55;4.93;;;3.38;;
72720;SDS011;60835;50.974;10.322;2022-10-17T04:34:22;10.15;;;3.42;;
72720;SDS011;60835;50.974;10.322;2022-10-17T04:36:48;5.82;;;3.80;;
72720;SDS011;60835;50.974;10.322;2022-10-17T04:39:16;5.03;;;3.22;;
72720;SDS011;60835;50.974;10.322;2022-10-17T04:41:43;6.93;;;3.63;;
72720;SDS011;60835;50.974;10.322;2022-10-17T04:44:10;6.40;;;3.28;;
72720;SDS011;60835;50.974;10.322;2022-10-17T04:46:36;7.13;;;3.78;;
72720;SDS011;60835;50.974;10.322;2022-10-17T04:49:03;12.25;;;4.03;;
72720;SDS011;60835;50.974;10.322;2022-10-17T04:51:29;8.65;;;3.38;;
72720;SDS011;60835;50.974;10.322;2022-10-17T04:53:56;8.52;;;3.60;;
72720;SDS011;60835;50.974;10.322;2022-10-17T04:56:23;4.88;;;3.42;;
72720;SDS011;60835;50.974;10.322;2022-10-17T04:58:50;8.43;;;3.40;;
72720;SDS011;60835;50.974;10.322;2022-10-17T05:01:18;5.22;;;3.22;;
72720;SDS011;60835;50.974;10.322;2022-10-17T05:03:47;12.15;;;3.53;;
72720;SDS011;60835;50.974;10.322;2022-10-17T05:06:18;8.13;;;3.33;;
72720;SDS011;60835;50.974;10.322;2022-10-17T05:08:47;12.43;;;3.08;;
72720;SDS011;60835;50.974;10.322;2022-10-17T05:11:24;12.43;;;2.90;;
72720;SDS011;60835;50.974;10.322;2022-10-17T05:13:52;5.72;;;2.97;;
72720;SDS011;60835;50.974;10.322;2022-10-17T05:16:20;6.05;;;3.42;;
72720;SDS011;60835;50.974;10.322;2022-10-17T05:18:48;7.63;;;3.83;;
72720;SDS011;60835;50.974;10.322;2022-10-17T05:21:18;6.10;;;3.55;;
72720;SDS011;60835;50.974;10.322;2022-10-17T05:23:46;6.18;;;3.28;;
72720;SDS011;60835;50.974;10.322;2022-10-17T05:26:12;6.63;;;3.45;;
72720;SDS011;60835;50.974;10.322;2022-10-17T05:28:39;19.17;;;4.18;;
72720;SDS011;60835;50.974;10.322;2022-10-17T05:31:07;7.07;;;3.70;;
72720;SDS011;60835;50.974;10.322;2022-10-17T05:33:35;11.75;;;4.22;;
72720;SDS011;60835;50.974;10.322;2022-10-17T05:36:02;9.75;;;3.92;;
72720;SDS011;60835;50.974;10.322;2022-10-17T05:38:29;8.98;;;3.90;;
72720;SDS011;60835;50.974;10.322;2022-10-17T05:40:59;8.60;;;3.75;;
72720;SDS011;60835;50.974;10.322;2022-10-17T05:43:27;11.75;;;3.97;;
72720;SDS011;60835;50.974;10.322;2022-10-17T05:45:54;10.18;;;3.97;;
72720;SDS011;60835;50.974;10.322;2022-10-17T05:48:21;8.35;;;3.83;;
72720;SDS011;60835;50.974;10.322;2022-10-17T05:50:48;9.50;;;3.83;;
72720;SDS011;60835;50.974;10.322;2022-10-17T05:53:15;8.07;;;5.10;;
72720;SDS011;60835;50.974;10.322;2022-10-17T05:55:42;9.48;;;4.38;;
72720;SDS011;60835;50.974;10.322;2022-10-17T05:58:08;10.90;;;4.10;;
72720;SDS011;60835;50.974;10.322;2022-10-17T06:00:47;15.02;;;4.75;;
72720;SDS011;60835;50.974;10.322;2022-10-17T06:03:13;13.07;;;3.88;;
72720;SDS011;60835;50.974;10.322;2022-10-17T06:05:40;7.82;;;4.43;;
72720;SDS011;60835;50.974;10.322;2022-10-17T06:08:06;14.00;;;4.47;;
72720;SDS011;60835;50.974;10.322;2022-10-17T06:10:33;10.32;;;4.07;;
72720;SDS011;60835;50.974;10.322;2022-10-17T06:12:59;15.35;;;3.95;;
72720;SDS011;60835;50.974;10.322;2022-10-17T06:15:26;10.35;;;4.75;;
72720;SDS011;60835;50.974;10.322;2022-10-17T06:17:52;10.63;;;4.82;;
72720;SDS011;60835;50.974;10.322;2022-10-17T06:20:18;12.85;;;4.85;;
72720;SDS011;60835;50.974;10.322;2022-10-17T06:22:45;9.25;;;4.10;;
72720;SDS011;60835;50.974;10.322;2022-10-17T06:25:11;8.75;;;4.72;;
72720;SDS011;60835;50.974;10.322;2022-10-17T06:27:38;11.05;;;4.43;;
72720;SDS011;60835;50.974;10.322;2022-10-17T06:30:05;7.40;;;3.70;;
72720;SDS011;60835;50.974;10.322;2022-10-17T06:32:32;6.50;;;2.55;;
72720;SDS011;60835;50.974;10.322;2022-10-17T06:34:58;6.82;;;3.95;;
72720;SDS011;60835;50.974;10.322;2022-10-17T06:37:25;8.82;;;3.20;;
72720;SDS011;60835;50.974;10.322;2022-10-17T06:39:52;10.85;;;2.63;;
72720;SDS011;60835;50.974;10.322;2022-10-17T06:42:18;14.57;;;2.45;;
72720;SDS011;60835;50.974;10.322;2022-10-17T06:44:45;7.85;;;2.70;;
72720;SDS011;60835;50.974;10.322;2022-10-17T06:47:11;7.40;;;2.15;;
72720;SDS011;60835;50.974;10.322;2022-10-17T06:49:43;8.43;;;2.22;;
72720;SDS011;60835;50.974;10.322;2022-10-17T06:52:09;5.13;;;2.15;;
72720;SDS011;60835;50.974;10.322;2022-10-17T06:54:36;3.58;;;2.33;;
72720;SDS011;60835;50.974;10.322;2022-10-17T06:57:02;8.32;;;2.40;;
72720;SDS011;60835;50.974;10.322;2022-10-17T06:59:29;7.53;;;2.38;;
72720;SDS011;60835;50.974;10.322;2022-10-17T07:01:55;3.65;;;2.30;;
72720;SDS011;60835;50.974;10.322;2022-10-17T07:04:21;4.80;;;2.13;;
72720;SDS011;60835;50.974;10.322;2022-10-17T07:06:48;7.10;;;2.20;;
72720;SDS011;60835;50.974;10.322;2022-10-17T07:09:14;5.53;;;2.30;;
72720;SDS011;60835;50.974;10.322;2022-10-17T07:11:42;8.30;;;2.40;;
72720;SDS011;60835;50.974;10.322;2022-10-17T07:14:08;7.50;;;3.25;;
72720;SDS011;60835;50.974;10.322;2022-10-17T07:16:35;4.15;;;2.33;;
72720;SDS011;60835;50.974;10.322;2022-10-17T07:19:02;4.80;;;2.15;;
72720;SDS011;60835;50.974;10.322;2022-10-17T07:21:28;8.65;;;2.42;;
72720;SDS011;60835;50.974;10.322;2022-10-17T07:23:59;9.40;;;2.55;;
72720;SDS011;60835;50.974;10.322;2022-10-17T07:26:25;4.20;;;2.25;;
72720;SDS011;60835;50.974;10.322;2022-10-17T07:28:52;8.95;;;3.20;;
72720;SDS011;60835;50.974;10.322;2022-10-17T07:31:21;7.97;;;2.35;;
72720;SDS011;60835;50.974;10.322;2022-10-17T07:33:48;10.35;;;2.10;;
72720;SDS011;60835;50.974;10.322;2022-10-17T07:36:15;8.95;;;2.78;;
72720;SDS011;60835;50.974;10.322;2022-10-17T07:38:43;5.50;;;2.42;;
72720;SDS011;60835;50.974;10.322;2022-10-17T07:41:10;7.85;;;2.70;;
72720;SDS011;60835;50.974;10.322;2022-10-17T07:43:44;4.78;;;2.08;;
72720;SDS011;60835;50.974;10.322;2022-10-17T07:46:11;8.43;;;2.67;;
72720;SDS011;60835;50.974;10.322;2022-10-17T07:48:38;5.13;;;2.30;;
72720;SDS011;60835;50.974;10.322;2022-10-17T07:51:05;6.88;;;1.95;;
72720;SDS011;60835;50.974;10.322;2022-10-17T07:53:36;4.63;;;2.25;;
72720;SDS011;60835;50.974;10.322;2022-10-17T07:56:05;6.13;;;2.08;;
72720;SDS011;60835;50.974;10.322;2022-10-17T07:58:33;7.57;;;2.47;;
72720;SDS011;60835;50.974;10.322;2022-10-17T08:01:03;5.45;;;2.13;;
72720;SDS011;60835;50.974;10.322;2022-10-17T08:03:36;9.88;;;2.47;;
72720;SDS011;60835;50.974;10.322;2022-10-17T08:06:02;6.63;;;2.22;;
72720;SDS011;60835;50.974;10.322;2022-10-17T08:08:29;6.07;;;2.33;;
72720;SDS011;60835;50.974;10.322;2022-10-17T08:10:59;3.25;;;1.88;;
72720;SDS011;60835;50.974;10.322;2022-10-17T08:13:27;8.13;;;2.28;;
72720;SDS011;60835;50.974;10.322;2022-10-17T08:15:57;6.68;;;2.20;;
72720;SDS011;60835;50.974;10.322;2022-10-17T08:18:24;7.95;;;2.08;;
72720;SDS011;60835;50.974;10.322;2022-10-17T08:20:51;3.83;;;2.10;;
72720;SDS011;60835;50.974;10.322;2022-10-17T08:23:23;2.95;;;1.90;;
72720;SDS011;60835;50.974;10.322;2022-10-17T08:25:49;4.32;;;1.80;;
72720;SDS011;60835;50.974;10.322;2022-10-17T08:28:15;4.88;;;1.70;;
72720;SDS011;60835;50.974;10.322;2022-10-17T08:30:42;6.82;;;2.10;;
72720;SDS011;60835;50.974;10.322;2022-10-17T08:33:08;3.53;;;2.30;;
72720;SDS011;60835;50.974;10.322;2022-10-17T08:35:35;6.07;;;1.77;;
72720;SDS011;60835;50.974;10.322;2022-10-17T08:38:01;1.98;;;1.50;;
72720;SDS011;60835;50.974;10.322;2022-10-17T08:40:29;8.07;;;2.28;;
72720;SDS011;60835;50.974;10.322;2022-10-17T08:43:22;4.40;;;1.95;;
72720;SDS011;60835;50.974;10.322;2022-10-17T08:46:02;6.35;;;1.73;;
72720;SDS011;60835;50.974;10.322;2022-10-17T08:48:32;4.30;;;1.70;;
72720;SDS011;60835;50.974;10.322;2022-10-17T08:53:54;4.50;;;2.13;;
72720;SDS011;60835;50.974;10.322;2022-10-17T08:57:01;5.68;;;2.05;;
72720;SDS011;60835;50.974;10.322;2022-10-17T08:59:22;10.05;;;1.65;;
72720;SDS011;60835;50.974;10.322;2022-10-17T09:02:13;6.85;;;1.90;;
72720;SDS011;60835;50.974;10.322;2022-10-17T09:12:25;9.90;;;2.30;;
72720;SDS011;60835;50.974;10.322;2022-10-17T09:17:57;4.78;;;1.60;;
72720;SDS011;60835;50.974;10.322;2022-10-17T09:20:46;5.68;;;1.88;;
72720;SDS011;60835;50.974;10.322;2022-10-17T09:23:21;3.43;;;1.60;;
72720;SDS011;60835;50.974;10.322;2022-10-17T09:25:53;7.78;;;1.98;;
72720;SDS011;60835;50.974;10.322;2022-10-17T09:28:32;5.13;;;1.70;;
72720;SDS011;60835;50.974;10.322;2022-10-17T09:31:11;3.97;;;1.80;;
72720;SDS011;60835;50.974;10.322;2022-10-17T09:36:33;4.47;;;1.90;;
72720;SDS011;60835;50.974;10.322;2022-10-17T09:39:05;2.95;;;1.58;;
72720;SDS011;60835;50.974;10.322;2022-10-17T09:41:37;4.40;;;1.90;;
72720;SDS011;60835;50.974;10.322;2022-10-17T09:49:17;6.15;;;1.65;;
72720;SDS011;60835;50.974;10.322;2022-10-17T09:51:48;7.90;;;1.80;;
72720;SDS011;60835;50.974;10.322;2022-10-17T09:54:22;5.20;;;1.80;;
72720;SDS011;60835;50.974;10.322;2022-10-17T09:57:02;2.90;;;1.80;;
72720;SDS011;60835;50.974;10.322;2022-10-17T09:59:31;4.00;;;1.73;;
72720;SDS011;60835;50.974;10.322;2022-10-17T10:02:33;6.10;;;1.55;;
72720;SDS011;60835;50.974;10.322;2022-10-17T10:05:02;11.38;;;3.90;;
72720;SDS011;60835;50.974;10.322;2022-10-17T10:07:34;4.50;;;2.00;;
72720;SDS011;60835;50.974;10.322;2022-10-17T10:10:07;4.30;;;1.63;;
72720;SDS011;60835;50.974;10.322;2022-10-17T10:15:44;4.05;;;2.00;;
72720;SDS011;60835;50.974;10.322;2022-10-17T10:26:45;7.00;;;1.45;;
72720;SDS011;60835;50.974;10.322;2022-10-17T10:31:57;4.97;;;2.00;;
72720;SDS011;60835;50.974;10.322;2022-10-17T10:37:26;5.63;;;1.92;;
72720;SDS011;60835;50.974;10.322;2022-10-17T10:40:06;7.93;;;1.90;;
72720;SDS011;60835;50.974;10.322;2022-10-17T10:42:45;6.22;;;1.60;;
72720;SDS011;60835;50.974;10.322;2022-10-17T10:45:21;7.00;;;1.75;;
72720;SDS011;60835;50.974;10.322;2022-10-17T10:50:53;2.65;;;1.60;;
72720;SDS011;60835;50.974;10.322;2022-10-17T10:53:43;5.53;;;1.65;;
72720;SDS011;60835;50.974;10.322;2022-10-17T11:13:16;3.95;;;1.90;;
72720;SDS011;60835;50.974;10.322;2022-10-17T11:15:48;4.10;;;1.90;;
72720;SDS011;60835;50.974;10.322;2022-10-17T11:18:25;3.50;;;1.80;;
72720;SDS011;60835;50.974;10.322;2022-10-17T11:24:33;2.80;;;1.58;;
72720;SDS011;60835;50.974;10.322;2022-10-17T11:26:47;6.03;;;2.53;;
72720;SDS011;60835;50.974;10.322;2022-10-17T11:29:30;6.93;;;1.77;;
72720;SDS011;60835;50.974;10.322;2022-10-17T11:34:40;2.55;;;1.60;;
72720;SDS011;60835;50.974;10.322;2022-10-17T11:37:18;2.83;;;1.83;;
72720;SDS011;60835;50.974;10.322;2022-10-17T11:39:53;4.20;;;1.70;;
72720;SDS011;60835;50.974;10.322;2022-10-17T11:42:27;9.60;;;1.95;;
72720;SDS011;60835;50.974;10.322;2022-10-17T11:44:59;2.65;;;1.60;;
72720;SDS011;60835;50.974;10.322;2022-10-17T11:50:19;7.18;;;1.80;;
72720;SDS011;60835;50.974;10.322;2022-10-17T11:53:16;4.72;;;1.60;;
72720;SDS011;60835;50.974;10.322;2022-10-17T11:55:45;6.45;;;1.67;;
72720;SDS011;60835;50.974;10.322;2022-10-17T12:06:49;7.22;;;1.73;;
72720;SDS011;60835;50.974;10.322;2022-10-17T12:09:21;5.63;;;1.55;;
72720;SDS011;60835;50.974;10.322;2022-10-17T12:11:58;7.38;;;1.80;;
72720;SDS011;60835;50.974;10.322;2022-10-17T12:17:04;6.68;;;1.67;;
72720;SDS011;60835;50.974;10.322;2022-10-17T12:19:49;4.82;;;1.63;;
72720;SDS011;60835;50.974;10.322;2022-10-17T12:22:34;1.73;;;1.48;;
72720;SDS011;60835;50.974;10.322;2022-10-17T12:25:00;4.82;;;1.63;;
72720;SDS011;60835;50.974;10.322;2022-10-17T12:27:36;4.50;;;1.38;;
72720;SDS011;60835;50.974;10.322;2022-10-17T12:32:54;3.78;;;1.70;;
72720;SDS011;60835;50.974;10.322;2022-10-17T12:35:33;4.50;;;1.67;;
72720;SDS011;60835;50.974;10.322;2022-10-17T12:38:04;3.25;;;1.42;;
72720;SDS011;60835;50.974;10.322;2022-10-17T12:51:05;8.75;;;1.67;;
72720;SDS011;60835;50.974;10.322;2022-10-17T12:54:07;8.13;;;2.97;;
72720;SDS011;60835;50.974;10.322;2022-10-17T12:56:40;8.63;;;2.13;;
72720;SDS011;60835;50.974;10.322;2022-10-17T12:59:25;5.05;;;2.42;;
72720;SDS011;60835;50.974;10.322;2022-10-17T13:04:24;4.65;;;1.75;;
72720;SDS011;60835;50.974;10.322;2022-10-17T13:06:53;4.45;;;1.70;;
72720;SDS011;60835;50.974;10.322;2022-10-17T13:11:57;5.75;;;2.15;;
72720;SDS011;60835;50.974;10.322;2022-10-17T13:14:30;4.28;;;1.98;;
72720;SDS011;60835;50.974;10.322;2022-10-17T13:16:59;6.85;;;2.60;;
72720;SDS011;60835;50.974;10.322;2022-10-17T13:19:28;3.13;;;1.50;;
72720;SDS011;60835;50.974;10.322;2022-10-17T13:22:15;15.43;;;2.00;;
72720;SDS011;60835;50.974;10.322;2022-10-17T13:24:42;4.03;;;1.90;;
72720;SDS011;60835;50.974;10.322;2022-10-17T13:29:47;2.40;;;1.40;;
72720;SDS011;60835;50.974;10.322;2022-10-17T13:32:14;4.18;;;1.40;;
72720;SDS011;60835;50.974;10.322;2022-10-17T13:34:41;6.82;;;1.77;;
72720;SDS011;60835;50.974;10.322;2022-10-17T13:37:09;7.40;;;1.98;;
72720;SDS011;60835;50.974;10.322;2022-10-17T13:39:41;5.80;;;1.67;;
72720;SDS011;60835;50.974;10.322;2022-10-17T13:42:28;8.63;;;1.80;;
72720;SDS011;60835;50.974;10.322;2022-10-17T13:44:56;6.82;;;1.70;;
72720;SDS011;60835;50.974;10.322;2022-10-17T13:47:25;2.42;;;1.63;;
72720;SDS011;60835;50.974;10.322;2022-10-17T13:49:53;2.85;;;1.92;;
72720;SDS011;60835;50.974;10.322;2022-10-17T13:52:22;6.28;;;1.90;;
72720;SDS011;60835;50.974;10.322;2022-10-17T13:54:51;6.32;;;1.58;;
72720;SDS011;60835;50.974;10.322;2022-10-17T13:59:48;4.13;;;1.60;;
72720;SDS011;60835;50.974;10.322;2022-10-17T14:02:24;4.07;;;1.60;;
72720;SDS011;60835;50.974;10.322;2022-10-17T14:07:51;4.20;;;1.80;;
72720;SDS011;60835;50.974;10.322;2022-10-17T14:10:38;5.35;;;2.13;;
72720;SDS011;60835;50.974;10.322;2022-10-17T14:13:06;5.13;;;1.90;;
72720;SDS011;60835;50.974;10.322;2022-10-17T14:15:48;6.57;;;2.00;;
72720;SDS011;60835;50.974;10.322;2022-10-17T14:18:19;5.50;;;2.28;;
72720;SDS011;60835;50.974;10.322;2022-10-17T14:20:49;7.30;;;1.77;;
72720;SDS011;60835;50.974;10.322;2022-10-17T14:23:41;4.63;;;1.70;;
72720;SDS011;60835;50.974;10.322;2022-10-17T14:26:18;5.05;;;1.88;;
72720;SDS011;60835;50.974;10.322;2022-10-17T14:28:49;10.68;;;2.22;;
72720;SDS011;60835;50.974;10.322;2022-10-17T14:31:31;4.82;;;2.15;;
72720;SDS011;60835;50.974;10.322;2022-10-17T14:34:00;9.93;;;1.80;;
72720;SDS011;60835;50.974;10.322;2022-10-17T14:36:33;7.88;;;1.90;;
72720;SDS011;60835;50.974;10.322;2022-10-17T14:39:03;5.25;;;2.15;;
72720;SDS011;60835;50.974;10.322;2022-10-17T14:41:40;6.32;;;2.47;;
72720;SDS011;60835;50.974;10.322;2022-10-17T14:44:28;4.40;;;1.83;;
72720;SDS011;60835;50.974;10.322;2022-10-17T14:47:01;7.13;;;1.50;;
72720;SDS011;60835;50.974;10.322;2022-10-17T14:49:50;4.95;;;2.05;;
72720;SDS011;60835;50.974;10.322;2022-10-17T14:52:29;3.20;;;1.75;;
72720;SDS011;60835;50.974;10.322;2022-10-17T14:54:57;5.25;;;3.30;;
72720;SDS011;60835;50.974;10.322;2022-10-17T14:57:27;9.40;;;2.83;;
72720;SDS011;60835;50.974;10.322;2022-10-17T14:59:57;7.07;;;2.10;;
72720;SDS011;60835;50.974;10.322;2022-10-17T15:02:24;6.38;;;2.30;;
72720;SDS011;60835;50.974;10.322;2022-10-17T15:04:53;4.15;;;1.85;;
72720;SDS011;60835;50.974;10.322;2022-10-17T15:07:19;4.32;;;2.00;;
72720;SDS011;60835;50.974;10.322;2022-10-17T15:09:47;7.80;;;2.20;;
72720;SDS011;60835;50.974;10.322;2022-10-17T15:12:17;6.97;;;2.08;;
72720;SDS011;60835;50.974;10.322;2022-10-17T15:14:45;7.65;;;1.77;;
72720;SDS011;60835;50.974;10.322;2022-10-17T15:17:15;10.02;;;2.72;;
72720;SDS011;60835;50.974;10.322;2022-10-17T15:19:46;3.95;;;1.85;;
72720;SDS011;60835;50.974;10.322;2022-10-17T15:22:13;4.88;;;2.25;;
72720;SDS011;60835;50.974;10.322;2022-10-17T15:24:41;4.80;;;2.17;;
72720;SDS011;60835;50.974;10.322;2022-10-17T15:27:15;7.75;;;2.00;;
72720;SDS011;60835;50.974;10.322;2022-10-17T15:29:43;7.32;;;2.30;;
72720;SDS011;60835;50.974;10.322;2022-10-17T15:32:11;4.43;;;2.13;;
72720;SDS011;60835;50.974;10.322;2022-10-17T15:34:38;9.35;;;2.08;;
72720;SDS011;60835;50.974;10.322;2022-10-17T15:37:05;11.68;;;2.63;;
72720;SDS011;60835;50.974;10.322;2022-10-17T15:39:32;5.30;;;2.28;;
72720;SDS011;60835;50.974;10.322;2022-10-17T15:41:59;7.22;;;1.92;;
72720;SDS011;60835;50.974;10.322;2022-10-17T15:44:25;6.00;;;2.20;;
72720;SDS011;60835;50.974;10.322;2022-10-17T15:46:51;3.40;;;2.20;;
72720;SDS011;60835;50.974;10.322;2022-10-17T15:49:20;5.13;;;1.88;;
72720;SDS011;60835;50.974;10.322;2022-10-17T15:51:47;5.65;;;3.15;;
72720;SDS011;60835;50.974;10.322;2022-10-17T15:56:52;11.18;;;3.00;;
72720;SDS011;60835;50.974;10.322;2022-10-17T15:59:29;10.13;;;4.35;;
72720;SDS011;60835;50.974;10.322;2022-10-17T16:01:58;17.83;;;6.78;;
72720;SDS011;60835;50.974;10.322;2022-10-17T16:04:24;12.27;;;3.13;;
72720;SDS011;60835;50.974;10.322;2022-10-17T16:06:52;12.38;;;3.03;;
72720;SDS011;60835;50.974;10.322;2022-10-17T16:09:19;12.48;;;2.50;;
72720;SDS011;60835;50.974;10.322;2022-10-17T16:11:45;16.67;;;6.60;;
72720;SDS011;60835;50.974;10.322;2022-10-17T16:14:12;6.32;;;3.22;;
72720;SDS011;60835;50.974;10.322;2022-10-17T16:16:40;8.65;;;3.67;;
72720;SDS011;60835;50.974;10.322;2022-10-17T16:19:07;9.73;;;2.50;;
72720;SDS011;60835;50.974;10.322;2022-10-17T16:21:35;9.48;;;2.22;;
72720;SDS011;60835;50.974;10.322;2022-10-17T16:24:04;10.23;;;2.40;;
72720;SDS011;60835;50.974;10.322;2022-10-17T16:26:31;5.60;;;2.38;;
72720;SDS011;60835;50.974;10.322;2022-10-17T16:28:58;5.57;;;2.47;;
72720;SDS011;60835;50.974;10.322;2022-10-17T16:31:32;9.30;;;2.83;;
72720;SDS011;60835;50.974;10.322;2022-10-17T16:34:01;12.27;;;4.50;;
72720;SDS011;60835;50.974;10.322;2022-10-17T16:36:29;12.15;;;5.13;;
72720;SDS011;60835;50.974;10.322;2022-10-17T16:38:55;19.52;;;6.93;;
72720;SDS011;60835;50.974;10.322;2022-10-17T16:41:26;8.88;;;3.28;;
72720;SDS011;60835;50.974;10.322;2022-10-17T16:44:00;8.95;;;3.25;;
72720;SDS011;60835;50.974;10.322;2022-10-17T16:46:28;6.95;;;2.50;;
72720;SDS011;60835;50.974;10.322;2022-10-17T16:48:56;10.40;;;4.15;;
72720;SDS011;60835;50.974;10.322;2022-10-17T16:51:23;11.05;;;3.08;;
72720;SDS011;60835;50.974;10.322;2022-10-17T16:53:51;11.80;;;4.00;;
72720;SDS011;60835;50.974;10.322;2022-10-17T16:56:20;9.23;;;3.38;;
72720;SDS011;60835;50.974;10.322;2022-10-17T16:58:48;10.70;;;3.17;;
72720;SDS011;60835;50.974;10.322;2022-10-17T17:01:16;7.57;;;3.03;;
72720;SDS011;60835;50.974;10.322;2022-10-17T17:03:45;6.90;;;2.40;;
72720;SDS011;60835;50.974;10.322;2022-10-17T17:06:19;13.75;;;3.53;;
72720;SDS011;60835;50.974;10.322;2022-10-17T17:08:51;6.32;;;2.55;;
72720;SDS011;60835;50.974;10.322;2022-10-17T17:11:19;9.98;;;3.42;;
72720;SDS011;60835;50.974;10.322;2022-10-17T17:13:47;7.63;;;2.40;;